sensor_id;sensor_type;location;lat;lon;timestamp;P1;durP1;ratioP1;P2;durP2;ratioP2
11334;SDS011;5722;42.620;23.374;2023-09-19T00:01:39;5.77;;;4.37;;
11334;SDS011;5722;42.620;23.374;2023-09-19T00:04:08;5.30;;;4.50;;
11334;SDS011;5722;42.620;23.374;2023-09-19T00:06:37;7.87;;;4.83;;
11334;SDS011;5722;42.620;23.374;2023-09-19T00:09:04;6.00;;;4.70;;
11334;SDS011;5722;42.620;23.374;2023-09-19T00:11:35;7.20;;;5.00;;
11334;SDS011;5722;42.620;23.374;2023-09-19T00:14:02;5.60;;;5.10;;
11334;SDS011;5722;42.620;23.374;2023-09-19T00:16:30;5.30;;;4.80;;
11334;SDS011;5722;42.620;23.374;2023-09-19T00:18:58;5.20;;;4.67;;
11334;SDS011;5722;42.620;23.374;2023-09-19T00:21:26;5.63;;;5.00;;
11334;SDS011;5722;42.620;23.374;2023-09-19T00:23:53;7.67;;;4.90;;
11334;SDS011;5722;42.620;23.374;2023-09-19T00:26:20;7.80;;;4.80;;
11334;SDS011;5722;42.620;23.374;2023-09-19T00:28:47;8.90;;;4.77;;
11334;SDS011;5722;42.620;23.374;2023-09-19T00:31:14;5.73;;;4.90;;
11334;SDS011;5722;42.620;23.374;2023-09-19T00:33:41;7.37;;;4.80;;
11334;SDS011;5722;42.620;23.374;2023-09-19T00:36:08;5.67;;;4.70;;
11334;SDS011;5722;42.620;23.374;2023-09-19T00:38:36;5.93;;;4.83;;
11334;SDS011;5722;42.620;23.374;2023-09-19T00:41:03;7.03;;;5.30;;
11334;SDS011;5722;42.620;23.374;2023-09-19T00:43:30;6.90;;;5.47;;
11334;SDS011;5722;42.620;23.374;2023-09-19T00:45:59;8.97;;;5.10;;
11334;SDS011;5722;42.620;23.374;2023-09-19T00:48:28;6.57;;;4.60;;
11334;SDS011;5722;42.620;23.374;2023-09-19T00:50:55;5.60;;;5.10;;
11334;SDS011;5722;42.620;23.374;2023-09-19T00:53:24;6.57;;;5.07;;
11334;SDS011;5722;42.620;23.374;2023-09-19T00:55:54;9.03;;;5.33;;
11334;SDS011;5722;42.620;23.374;2023-09-19T00:58:21;7.43;;;5.63;;
11334;SDS011;5722;42.620;23.374;2023-09-19T01:00:48;5.83;;;5.27;;
11334;SDS011;5722;42.620;23.374;2023-09-19T01:03:14;8.07;;;5.40;;
11334;SDS011;5722;42.620;23.374;2023-09-19T01:05:41;8.53;;;5.00;;
11334;SDS011;5722;42.620;23.374;2023-09-19T01:08:10;7.83;;;5.77;;
11334;SDS011;5722;42.620;23.374;2023-09-19T01:10:41;6.67;;;5.33;;
11334;SDS011;5722;42.620;23.374;2023-09-19T01:13:21;6.20;;;5.60;;
11334;SDS011;5722;42.620;23.374;2023-09-19T01:15:54;6.23;;;5.63;;
11334;SDS011;5722;42.620;23.374;2023-09-19T01:18:30;7.27;;;5.47;;
11334;SDS011;5722;42.620;23.374;2023-09-19T01:21:05;8.50;;;5.47;;
11334;SDS011;5722;42.620;23.374;2023-09-19T01:23:59;6.30;;;5.70;;
11334;SDS011;5722;42.620;23.374;2023-09-19T01:26:39;9.13;;;5.47;;
11334;SDS011;5722;42.620;23.374;2023-09-19T01:29:37;5.83;;;5.23;;
11334;SDS011;5722;42.620;23.374;2023-09-19T01:32:20;9.10;;;5.40;;
11334;SDS011;5722;42.620;23.374;2023-09-19T01:34:53;6.40;;;5.80;;
11334;SDS011;5722;42.620;23.374;2023-09-19T01:37:29;6.67;;;5.80;;
11334;SDS011;5722;42.620;23.374;2023-09-19T01:39:57;9.00;;;5.80;;
11334;SDS011;5722;42.620;23.374;2023-09-19T01:42:37;6.10;;;5.50;;
11334;SDS011;5722;42.620;23.374;2023-09-19T01:45:11;8.23;;;5.87;;
11334;SDS011;5722;42.620;23.374;2023-09-19T01:47:46;7.63;;;6.00;;
11334;SDS011;5722;42.620;23.374;2023-09-19T01:50:15;7.97;;;5.60;;
11334;SDS011;5722;42.620;23.374;2023-09-19T01:52:47;9.53;;;5.83;;
11334;SDS011;5722;42.620;23.374;2023-09-19T01:55:19;8.50;;;5.73;;
11334;SDS011;5722;42.620;23.374;2023-09-19T01:57:48;6.67;;;5.30;;
11334;SDS011;5722;42.620;23.374;2023-09-19T02:00:16;7.23;;;5.93;;
11334;SDS011;5722;42.620;23.374;2023-09-19T02:02:46;6.43;;;5.83;;
11334;SDS011;5722;42.620;23.374;2023-09-19T02:05:13;8.17;;;6.17;;
11334;SDS011;5722;42.620;23.374;2023-09-19T02:07:48;8.50;;;6.40;;
11334;SDS011;5722;42.620;23.374;2023-09-19T02:10:15;8.07;;;5.70;;
11334;SDS011;5722;42.620;23.374;2023-09-19T02:12:42;6.63;;;5.97;;
11334;SDS011;5722;42.620;23.374;2023-09-19T02:15:10;12.03;;;6.60;;
11334;SDS011;5722;42.620;23.374;2023-09-19T02:17:36;6.43;;;5.83;;
11334;SDS011;5722;42.620;23.374;2023-09-19T02:20:06;8.00;;;6.20;;
11334;SDS011;5722;42.620;23.374;2023-09-19T02:22:35;8.57;;;6.13;;
11334;SDS011;5722;42.620;23.374;2023-09-19T02:25:02;6.83;;;6.17;;
11334;SDS011;5722;42.620;23.374;2023-09-19T02:27:30;7.23;;;6.37;;
11334;SDS011;5722;42.620;23.374;2023-09-19T02:29:57;6.73;;;5.73;;
11334;SDS011;5722;42.620;23.374;2023-09-19T02:32:24;6.77;;;6.17;;
11334;SDS011;5722;42.620;23.374;2023-09-19T02:34:50;6.90;;;6.27;;
11334;SDS011;5722;42.620;23.374;2023-09-19T02:37:19;8.47;;;6.70;;
11334;SDS011;5722;42.620;23.374;2023-09-19T02:39:46;7.80;;;7.10;;
11334;SDS011;5722;42.620;23.374;2023-09-19T02:42:13;11.70;;;7.13;;
11334;SDS011;5722;42.620;23.374;2023-09-19T02:44:40;8.27;;;7.47;;
11334;SDS011;5722;42.620;23.374;2023-09-19T02:47:06;7.83;;;6.63;;
11334;SDS011;5722;42.620;23.374;2023-09-19T02:49:33;7.53;;;6.73;;
11334;SDS011;5722;42.620;23.374;2023-09-19T02:52:00;7.90;;;6.77;;
11334;SDS011;5722;42.620;23.374;2023-09-19T02:54:30;7.53;;;6.83;;
11334;SDS011;5722;42.620;23.374;2023-09-19T02:56:57;8.43;;;7.30;;
11334;SDS011;5722;42.620;23.374;2023-09-19T02:59:24;7.17;;;6.47;;
11334;SDS011;5722;42.620;23.374;2023-09-19T03:01:51;7.30;;;6.57;;
11334;SDS011;5722;42.620;23.374;2023-09-19T03:04:19;7.80;;;6.53;;
11334;SDS011;5722;42.620;23.374;2023-09-19T03:06:46;7.00;;;6.30;;
11334;SDS011;5722;42.620;23.374;2023-09-19T03:09:14;9.40;;;6.43;;
11334;SDS011;5722;42.620;23.374;2023-09-19T03:11:42;8.73;;;6.20;;
11334;SDS011;5722;42.620;23.374;2023-09-19T03:14:11;7.00;;;6.40;;
11334;SDS011;5722;42.620;23.374;2023-09-19T03:16:40;6.77;;;6.10;;
11334;SDS011;5722;42.620;23.374;2023-09-19T03:19:07;8.60;;;6.40;;
11334;SDS011;5722;42.620;23.374;2023-09-19T03:21:35;8.83;;;6.10;;
11334;SDS011;5722;42.620;23.374;2023-09-19T03:24:02;7.93;;;6.43;;
11334;SDS011;5722;42.620;23.374;2023-09-19T03:26:29;9.00;;;6.70;;
11334;SDS011;5722;42.620;23.374;2023-09-19T03:29:00;7.33;;;6.63;;
11334;SDS011;5722;42.620;23.374;2023-09-19T03:31:31;8.83;;;6.73;;
11334;SDS011;5722;42.620;23.374;2023-09-19T03:33:58;7.80;;;7.00;;
11334;SDS011;5722;42.620;23.374;2023-09-19T03:36:24;9.40;;;6.67;;
11334;SDS011;5722;42.620;23.374;2023-09-19T03:38:53;7.73;;;6.93;;
11334;SDS011;5722;42.620;23.374;2023-09-19T03:41:20;8.67;;;6.17;;
11334;SDS011;5722;42.620;23.374;2023-09-19T03:43:46;7.80;;;6.70;;
11334;SDS011;5722;42.620;23.374;2023-09-19T03:46:14;7.07;;;6.33;;
11334;SDS011;5722;42.620;23.374;2023-09-19T03:48:44;8.57;;;6.40;;
11334;SDS011;5722;42.620;23.374;2023-09-19T03:51:11;7.30;;;6.60;;
11334;SDS011;5722;42.620;23.374;2023-09-19T03:53:37;9.33;;;6.00;;
11334;SDS011;5722;42.620;23.374;2023-09-19T03:56:04;6.30;;;5.70;;
11334;SDS011;5722;42.620;23.374;2023-09-19T03:58:31;8.20;;;6.73;;
11334;SDS011;5722;42.620;23.374;2023-09-19T04:00:59;7.10;;;6.50;;
11334;SDS011;5722;42.620;23.374;2023-09-19T04:03:27;9.33;;;6.73;;
11334;SDS011;5722;42.620;23.374;2023-09-19T04:06:00;8.57;;;6.37;;
11334;SDS011;5722;42.620;23.374;2023-09-19T04:08:43;11.37;;;6.63;;
11334;SDS011;5722;42.620;23.374;2023-09-19T04:11:11;9.57;;;7.00;;
11334;SDS011;5722;42.620;23.374;2023-09-19T04:13:38;11.17;;;7.57;;
11334;SDS011;5722;42.620;23.374;2023-09-19T04:16:05;12.20;;;6.90;;
11334;SDS011;5722;42.620;23.374;2023-09-19T04:18:33;10.87;;;7.20;;
11334;SDS011;5722;42.620;23.374;2023-09-19T04:21:03;11.43;;;7.50;;
11334;SDS011;5722;42.620;23.374;2023-09-19T04:23:33;13.67;;;8.43;;
11334;SDS011;5722;42.620;23.374;2023-09-19T04:26:01;11.83;;;8.90;;
11334;SDS011;5722;42.620;23.374;2023-09-19T04:28:30;13.53;;;8.10;;
11334;SDS011;5722;42.620;23.374;2023-09-19T04:30:56;12.37;;;8.97;;
11334;SDS011;5722;42.620;23.374;2023-09-19T04:33:24;9.43;;;8.23;;
11334;SDS011;5722;42.620;23.374;2023-09-19T04:35:53;10.00;;;9.00;;
11334;SDS011;5722;42.620;23.374;2023-09-19T04:38:21;14.07;;;8.63;;
11334;SDS011;5722;42.620;23.374;2023-09-19T04:40:48;9.43;;;8.53;;
11334;SDS011;5722;42.620;23.374;2023-09-19T04:43:18;10.90;;;8.57;;
11334;SDS011;5722;42.620;23.374;2023-09-19T04:45:45;10.27;;;7.90;;
11334;SDS011;5722;42.620;23.374;2023-09-19T04:48:12;10.33;;;8.40;;
11334;SDS011;5722;42.620;23.374;2023-09-19T04:50:41;8.97;;;8.07;;
11334;SDS011;5722;42.620;23.374;2023-09-19T04:53:12;10.73;;;8.50;;
11334;SDS011;5722;42.620;23.374;2023-09-19T04:55:40;9.87;;;8.53;;
11334;SDS011;5722;42.620;23.374;2023-09-19T04:58:07;12.70;;;8.10;;
11334;SDS011;5722;42.620;23.374;2023-09-19T05:00:38;10.23;;;7.53;;
11334;SDS011;5722;42.620;23.374;2023-09-19T05:03:05;10.77;;;6.47;;
11334;SDS011;5722;42.620;23.374;2023-09-19T05:05:35;10.47;;;5.93;;
11334;SDS011;5722;42.620;23.374;2023-09-19T05:08:03;10.97;;;6.10;;
11334;SDS011;5722;42.620;23.374;2023-09-19T05:10:32;6.43;;;5.37;;
11334;SDS011;5722;42.620;23.374;2023-09-19T05:12:58;6.77;;;5.40;;
11334;SDS011;5722;42.620;23.374;2023-09-19T05:15:26;8.13;;;5.70;;
11334;SDS011;5722;42.620;23.374;2023-09-19T05:17:53;6.10;;;5.50;;
11334;SDS011;5722;42.620;23.374;2023-09-19T05:20:23;5.82;;;5.25;;
11334;SDS011;5722;42.620;23.374;2023-09-19T05:22:57;8.40;;;5.50;;
11334;SDS011;5722;42.620;23.374;2023-09-19T05:25:25;7.50;;;5.60;;
11334;SDS011;5722;42.620;23.374;2023-09-19T05:27:56;8.38;;;5.13;;
11334;SDS011;5722;42.620;23.374;2023-09-19T05:30:24;7.40;;;5.40;;
11334;SDS011;5722;42.620;23.374;2023-09-19T05:32:52;6.88;;;5.47;;
11334;SDS011;5722;42.620;23.374;2023-09-19T05:35:19;7.07;;;5.05;;
11334;SDS011;5722;42.620;23.374;2023-09-19T05:37:46;8.75;;;4.85;;
11334;SDS011;5722;42.620;23.374;2023-09-19T05:40:16;6.60;;;5.10;;
11334;SDS011;5722;42.620;23.374;2023-09-19T05:42:43;10.00;;;4.72;;
11334;SDS011;5722;42.620;23.374;2023-09-19T05:45:11;5.65;;;5.07;;
11334;SDS011;5722;42.620;23.374;2023-09-19T05:47:38;5.40;;;4.63;;
11334;SDS011;5722;42.620;23.374;2023-09-19T05:50:08;5.20;;;4.15;;
11334;SDS011;5722;42.620;23.374;2023-09-19T05:52:35;6.45;;;4.80;;
11334;SDS011;5722;42.620;23.374;2023-09-19T05:55:02;5.45;;;4.65;;
11334;SDS011;5722;42.620;23.374;2023-09-19T05:57:30;6.03;;;4.35;;
11334;SDS011;5722;42.620;23.374;2023-09-19T05:59:57;4.75;;;4.10;;
11334;SDS011;5722;42.620;23.374;2023-09-19T06:02:26;5.35;;;4.85;;
11334;SDS011;5722;42.620;23.374;2023-09-19T06:04:55;5.00;;;4.50;;
11334;SDS011;5722;42.620;23.374;2023-09-19T06:07:22;5.75;;;4.30;;
11334;SDS011;5722;42.620;23.374;2023-09-19T06:09:51;7.25;;;4.95;;
11334;SDS011;5722;42.620;23.374;2023-09-19T06:12:18;7.35;;;4.63;;
11334;SDS011;5722;42.620;23.374;2023-09-19T06:14:45;7.70;;;4.22;;
11334;SDS011;5722;42.620;23.374;2023-09-19T06:17:12;5.20;;;4.70;;
11334;SDS011;5722;42.620;23.374;2023-09-19T06:19:41;5.80;;;4.25;;
11334;SDS011;5722;42.620;23.374;2023-09-19T06:22:08;8.57;;;4.47;;
11334;SDS011;5722;42.620;23.374;2023-09-19T06:24:35;6.45;;;4.32;;
11334;SDS011;5722;42.620;23.374;2023-09-19T06:27:02;8.75;;;4.35;;
11334;SDS011;5722;42.620;23.374;2023-09-19T06:29:29;5.57;;;4.25;;
11334;SDS011;5722;42.620;23.374;2023-09-19T06:31:56;9.55;;;4.40;;
11334;SDS011;5722;42.620;23.374;2023-09-19T06:34:24;6.53;;;4.65;;
11334;SDS011;5722;42.620;23.374;2023-09-19T06:36:55;4.78;;;4.28;;
11334;SDS011;5722;42.620;23.374;2023-09-19T06:39:22;4.90;;;4.40;;
11334;SDS011;5722;42.620;23.374;2023-09-19T06:41:49;6.03;;;4.20;;
11334;SDS011;5722;42.620;23.374;2023-09-19T06:44:15;5.68;;;4.05;;
11334;SDS011;5722;42.620;23.374;2023-09-19T06:46:42;6.35;;;4.38;;
11334;SDS011;5722;42.620;23.374;2023-09-19T06:49:11;6.38;;;4.00;;
11334;SDS011;5722;42.620;23.374;2023-09-19T06:51:40;7.13;;;3.78;;
11334;SDS011;5722;42.620;23.374;2023-09-19T06:54:08;5.18;;;4.38;;
11334;SDS011;5722;42.620;23.374;2023-09-19T06:56:35;5.68;;;4.50;;
11334;SDS011;5722;42.620;23.374;2023-09-19T06:59:03;8.20;;;4.90;;
11334;SDS011;5722;42.620;23.374;2023-09-19T07:01:32;5.85;;;4.85;;
11334;SDS011;5722;42.620;23.374;2023-09-19T07:03:59;6.47;;;4.78;;
11334;SDS011;5722;42.620;23.374;2023-09-19T07:06:25;8.07;;;4.80;;
11334;SDS011;5722;42.620;23.374;2023-09-19T07:08:53;7.50;;;4.55;;
11334;SDS011;5722;42.620;23.374;2023-09-19T07:11:24;8.48;;;5.00;;
11334;SDS011;5722;42.620;23.374;2023-09-19T07:13:51;5.90;;;4.72;;
11334;SDS011;5722;42.620;23.374;2023-09-19T07:16:19;6.03;;;4.35;;
11334;SDS011;5722;42.620;23.374;2023-09-19T07:18:54;8.43;;;4.75;;
11334;SDS011;5722;42.620;23.374;2023-09-19T07:21:22;11.18;;;5.05;;
11334;SDS011;5722;42.620;23.374;2023-09-19T07:23:51;6.88;;;4.60;;
11334;SDS011;5722;42.620;23.374;2023-09-19T07:26:19;5.45;;;4.60;;
11334;SDS011;5722;42.620;23.374;2023-09-19T07:28:48;10.00;;;4.75;;
11334;SDS011;5722;42.620;23.374;2023-09-19T07:31:15;6.97;;;4.95;;
11334;SDS011;5722;42.620;23.374;2023-09-19T07:33:42;9.63;;;4.78;;
11334;SDS011;5722;42.620;23.374;2023-09-19T07:36:11;5.55;;;4.63;;
11334;SDS011;5722;42.620;23.374;2023-09-19T07:38:41;9.48;;;5.10;;
11334;SDS011;5722;42.620;23.374;2023-09-19T07:41:10;5.22;;;4.30;;
11334;SDS011;5722;42.620;23.374;2023-09-19T07:43:41;12.45;;;4.10;;
11334;SDS011;5722;42.620;23.374;2023-09-19T07:46:10;6.60;;;4.10;;
11334;SDS011;5722;42.620;23.374;2023-09-19T07:48:39;4.72;;;4.00;;
11334;SDS011;5722;42.620;23.374;2023-09-19T07:51:06;5.88;;;4.53;;
11334;SDS011;5722;42.620;23.374;2023-09-19T07:53:33;6.47;;;4.63;;
11334;SDS011;5722;42.620;23.374;2023-09-19T07:56:04;5.57;;;4.50;;
11334;SDS011;5722;42.620;23.374;2023-09-19T07:58:30;6.50;;;4.57;;
11334;SDS011;5722;42.620;23.374;2023-09-19T08:01:02;7.85;;;4.38;;
11334;SDS011;5722;42.620;23.374;2023-09-19T08:03:32;9.50;;;4.78;;
11334;SDS011;5722;42.620;23.374;2023-09-19T08:05:59;6.78;;;4.38;;
11334;SDS011;5722;42.620;23.374;2023-09-19T08:08:26;5.22;;;4.47;;
11334;SDS011;5722;42.620;23.374;2023-09-19T08:10:53;6.97;;;4.40;;
11334;SDS011;5722;42.620;23.374;2023-09-19T08:13:21;5.50;;;5.00;;
11334;SDS011;5722;42.620;23.374;2023-09-19T08:15:49;7.22;;;4.75;;
11334;SDS011;5722;42.620;23.374;2023-09-19T08:18:19;8.30;;;5.00;;
11334;SDS011;5722;42.620;23.374;2023-09-19T08:20:54;8.35;;;5.20;;
11334;SDS011;5722;42.620;23.374;2023-09-19T08:23:20;8.63;;;5.72;;
11334;SDS011;5722;42.620;23.374;2023-09-19T08:25:47;7.95;;;5.35;;
11334;SDS011;5722;42.620;23.374;2023-09-19T08:28:20;6.30;;;4.95;;
11334;SDS011;5722;42.620;23.374;2023-09-19T08:30:49;5.95;;;4.28;;
11334;SDS011;5722;42.620;23.374;2023-09-19T08:33:18;10.10;;;5.22;;
11334;SDS011;5722;42.620;23.374;2023-09-19T08:35:46;5.95;;;4.35;;
11334;SDS011;5722;42.620;23.374;2023-09-19T08:38:14;7.55;;;4.80;;
11334;SDS011;5722;42.620;23.374;2023-09-19T08:40:41;6.05;;;4.60;;
11334;SDS011;5722;42.620;23.374;2023-09-19T08:43:08;11.10;;;4.65;;
11334;SDS011;5722;42.620;23.374;2023-09-19T08:45:35;5.70;;;4.00;;
11334;SDS011;5722;42.620;23.374;2023-09-19T08:50:55;6.05;;;4.15;;
11334;SDS011;5722;42.620;23.374;2023-09-19T08:53:29;7.50;;;4.10;;
11334;SDS011;5722;42.620;23.374;2023-09-19T08:55:58;5.28;;;4.32;;
11334;SDS011;5722;42.620;23.374;2023-09-19T08:58:28;8.73;;;4.68;;
11334;SDS011;5722;42.620;23.374;2023-09-19T09:00:58;7.80;;;4.20;;
11334;SDS011;5722;42.620;23.374;2023-09-19T09:03:26;5.63;;;4.18;;
11334;SDS011;5722;42.620;23.374;2023-09-19T09:05:56;10.10;;;4.72;;
11334;SDS011;5722;42.620;23.374;2023-09-19T09:08:23;6.32;;;3.92;;
11334;SDS011;5722;42.620;23.374;2023-09-19T09:10:53;4.88;;;4.10;;
11334;SDS011;5722;42.620;23.374;2023-09-19T09:13:19;7.10;;;4.28;;
11334;SDS011;5722;42.620;23.374;2023-09-19T09:15:47;5.72;;;4.20;;
11334;SDS011;5722;42.620;23.374;2023-09-19T09:18:15;9.27;;;4.20;;
11334;SDS011;5722;42.620;23.374;2023-09-19T09:20:44;4.57;;;3.90;;
11334;SDS011;5722;42.620;23.374;2023-09-19T09:23:13;8.38;;;4.03;;
11334;SDS011;5722;42.620;23.374;2023-09-19T09:25:50;5.22;;;4.28;;
11334;SDS011;5722;42.620;23.374;2023-09-19T09:28:26;5.65;;;4.28;;
11334;SDS011;5722;42.620;23.374;2023-09-19T09:30:54;5.28;;;4.40;;
11334;SDS011;5722;42.620;23.374;2023-09-19T09:33:21;7.85;;;5.30;;
11334;SDS011;5722;42.620;23.374;2023-09-19T09:35:48;7.60;;;4.30;;
11334;SDS011;5722;42.620;23.374;2023-09-19T09:38:17;5.47;;;4.20;;
11334;SDS011;5722;42.620;23.374;2023-09-19T09:40:48;6.82;;;4.57;;
11334;SDS011;5722;42.620;23.374;2023-09-19T09:43:29;7.07;;;4.47;;
11334;SDS011;5722;42.620;23.374;2023-09-19T09:46:10;4.72;;;4.20;;
11334;SDS011;5722;42.620;23.374;2023-09-19T09:48:55;5.07;;;4.32;;
11334;SDS011;5722;42.620;23.374;2023-09-19T09:51:36;6.28;;;4.57;;
11334;SDS011;5722;42.620;23.374;2023-09-19T09:54:09;12.27;;;4.68;;
11334;SDS011;5722;42.620;23.374;2023-09-19T09:56:41;7.25;;;4.28;;
11334;SDS011;5722;42.620;23.374;2023-09-19T09:59:19;6.03;;;4.65;;
11334;SDS011;5722;42.620;23.374;2023-09-19T10:01:49;7.22;;;4.40;;
11334;SDS011;5722;42.620;23.374;2023-09-19T10:04:26;4.82;;;4.32;;
11334;SDS011;5722;42.620;23.374;2023-09-19T10:07:01;6.65;;;4.20;;
11334;SDS011;5722;42.620;23.374;2023-09-19T10:09:44;5.72;;;4.78;;
11334;SDS011;5722;42.620;23.374;2023-09-19T10:12:14;4.88;;;4.28;;
11334;SDS011;5722;42.620;23.374;2023-09-19T10:14:48;7.85;;;4.28;;
11334;SDS011;5722;42.620;23.374;2023-09-19T10:17:16;6.35;;;4.03;;
11334;SDS011;5722;42.620;23.374;2023-09-19T10:19:52;5.70;;;4.20;;
11334;SDS011;5722;42.620;23.374;2023-09-19T10:22:22;10.30;;;4.22;;
11334;SDS011;5722;42.620;23.374;2023-09-19T10:24:52;6.93;;;4.75;;
11334;SDS011;5722;42.620;23.374;2023-09-19T10:27:20;8.50;;;4.55;;
11334;SDS011;5722;42.620;23.374;2023-09-19T10:29:49;4.50;;;3.97;;
11334;SDS011;5722;42.620;23.374;2023-09-19T10:32:21;9.10;;;4.30;;
11334;SDS011;5722;42.620;23.374;2023-09-19T10:34:50;6.38;;;4.40;;
11334;SDS011;5722;42.620;23.374;2023-09-19T10:37:20;6.45;;;4.13;;
11334;SDS011;5722;42.620;23.374;2023-09-19T10:39:51;5.53;;;4.05;;
11334;SDS011;5722;42.620;23.374;2023-09-19T10:42:20;4.78;;;3.80;;
11334;SDS011;5722;42.620;23.374;2023-09-19T10:44:47;5.43;;;3.83;;
11334;SDS011;5722;42.620;23.374;2023-09-19T10:47:22;5.68;;;4.25;;
11334;SDS011;5722;42.620;23.374;2023-09-19T10:49:49;7.45;;;4.25;;
11334;SDS011;5722;42.620;23.374;2023-09-19T10:52:24;5.82;;;4.38;;
11334;SDS011;5722;42.620;23.374;2023-09-19T10:55:05;7.22;;;4.00;;
11334;SDS011;5722;42.620;23.374;2023-09-19T10:57:34;5.80;;;4.28;;
11334;SDS011;5722;42.620;23.374;2023-09-19T11:00:10;6.32;;;4.22;;
11334;SDS011;5722;42.620;23.374;2023-09-19T11:05:45;6.60;;;4.30;;
11334;SDS011;5722;42.620;23.374;2023-09-19T11:08:26;5.80;;;4.43;;
11334;SDS011;5722;42.620;23.374;2023-09-19T11:10:53;5.82;;;4.47;;
11334;SDS011;5722;42.620;23.374;2023-09-19T11:13:26;5.45;;;4.25;;
11334;SDS011;5722;42.620;23.374;2023-09-19T11:16:04;9.82;;;4.28;;
11334;SDS011;5722;42.620;23.374;2023-09-19T11:27:08;4.55;;;4.07;;
11334;SDS011;5722;42.620;23.374;2023-09-19T11:29:36;6.57;;;4.43;;
11334;SDS011;5722;42.620;23.374;2023-09-19T11:32:06;17.15;;;4.47;;
11334;SDS011;5722;42.620;23.374;2023-09-19T11:34:47;9.20;;;4.40;;
11334;SDS011;5722;42.620;23.374;2023-09-19T11:40:08;8.23;;;4.30;;
11334;SDS011;5722;42.620;23.374;2023-09-19T11:42:42;6.10;;;4.00;;
11334;SDS011;5722;42.620;23.374;2023-09-19T11:47:51;7.28;;;4.60;;
11334;SDS011;5722;42.620;23.374;2023-09-19T11:50:19;5.38;;;4.28;;
11334;SDS011;5722;42.620;23.374;2023-09-19T11:52:46;6.25;;;4.15;;
11334;SDS011;5722;42.620;23.374;2023-09-19T11:55:13;5.88;;;3.63;;
11334;SDS011;5722;42.620;23.374;2023-09-19T11:57:40;4.70;;;4.20;;
11334;SDS011;5722;42.620;23.374;2023-09-19T12:00:10;6.68;;;4.18;;
11334;SDS011;5722;42.620;23.374;2023-09-19T12:02:45;5.30;;;4.05;;
11334;SDS011;5722;42.620;23.374;2023-09-19T12:05:15;4.57;;;4.13;;
11334;SDS011;5722;42.620;23.374;2023-09-19T12:07:42;8.15;;;4.03;;
11334;SDS011;5722;42.620;23.374;2023-09-19T12:10:11;4.75;;;4.05;;
11334;SDS011;5722;42.620;23.374;2023-09-19T12:12:45;7.80;;;4.15;;
11334;SDS011;5722;42.620;23.374;2023-09-19T12:15:24;6.32;;;4.28;;
11334;SDS011;5722;42.620;23.374;2023-09-19T12:17:54;6.80;;;4.10;;
11334;SDS011;5722;42.620;23.374;2023-09-19T12:20:21;8.38;;;4.50;;
11334;SDS011;5722;42.620;23.374;2023-09-19T12:22:48;6.00;;;4.20;;
11334;SDS011;5722;42.620;23.374;2023-09-19T12:25:15;5.97;;;4.63;;
11334;SDS011;5722;42.620;23.374;2023-09-19T12:27:45;6.00;;;4.18;;
11334;SDS011;5722;42.620;23.374;2023-09-19T12:30:18;5.03;;;4.30;;
11334;SDS011;5722;42.620;23.374;2023-09-19T12:32:47;7.05;;;4.25;;
11334;SDS011;5722;42.620;23.374;2023-09-19T12:35:26;7.55;;;4.38;;
11334;SDS011;5722;42.620;23.374;2023-09-19T12:37:54;6.57;;;4.32;;
11334;SDS011;5722;42.620;23.374;2023-09-19T12:40:22;5.38;;;4.35;;
11334;SDS011;5722;42.620;23.374;2023-09-19T12:42:53;6.00;;;4.20;;
11334;SDS011;5722;42.620;23.374;2023-09-19T12:45:20;9.00;;;4.65;;
11334;SDS011;5722;42.620;23.374;2023-09-19T12:51:04;5.63;;;4.60;;
11334;SDS011;5722;42.620;23.374;2023-09-19T12:53:33;5.97;;;4.20;;
11334;SDS011;5722;42.620;23.374;2023-09-19T12:56:03;6.93;;;3.95;;
11334;SDS011;5722;42.620;23.374;2023-09-19T12:58:51;6.53;;;3.78;;
11334;SDS011;5722;42.620;23.374;2023-09-19T13:01:19;4.40;;;4.00;;
11334;SDS011;5722;42.620;23.374;2023-09-19T13:06:39;4.55;;;4.10;;
11334;SDS011;5722;42.620;23.374;2023-09-19T13:09:08;7.43;;;3.90;;
11334;SDS011;5722;42.620;23.374;2023-09-19T13:11:36;4.95;;;4.45;;
11334;SDS011;5722;42.620;23.374;2023-09-19T13:14:16;6.22;;;4.18;;
11334;SDS011;5722;42.620;23.374;2023-09-19T13:16:56;4.75;;;4.28;;
11334;SDS011;5722;42.620;23.374;2023-09-19T13:22:06;5.80;;;4.50;;
11334;SDS011;5722;42.620;23.374;2023-09-19T13:25:01;6.15;;;4.25;;
11334;SDS011;5722;42.620;23.374;2023-09-19T13:27:29;8.50;;;4.70;;
11334;SDS011;5722;42.620;23.374;2023-09-19T13:29:56;4.55;;;4.13;;
11334;SDS011;5722;42.620;23.374;2023-09-19T13:32:23;6.32;;;4.40;;
11334;SDS011;5722;42.620;23.374;2023-09-19T13:34:50;7.85;;;4.20;;
11334;SDS011;5722;42.620;23.374;2023-09-19T13:37:26;6.88;;;4.32;;
11334;SDS011;5722;42.620;23.374;2023-09-19T13:39:52;8.80;;;4.50;;
11334;SDS011;5722;42.620;23.374;2023-09-19T13:42:19;7.20;;;4.70;;
11334;SDS011;5722;42.620;23.374;2023-09-19T13:44:46;5.43;;;4.65;;
11334;SDS011;5722;42.620;23.374;2023-09-19T13:47:14;7.82;;;4.25;;
11334;SDS011;5722;42.620;23.374;2023-09-19T13:49:41;5.35;;;4.03;;
11334;SDS011;5722;42.620;23.374;2023-09-19T13:52:09;14.52;;;10.00;;
11334;SDS011;5722;42.620;23.374;2023-09-19T13:54:39;6.50;;;5.28;;
11334;SDS011;5722;42.620;23.374;2023-09-19T13:57:06;7.22;;;5.22;;
11334;SDS011;5722;42.620;23.374;2023-09-19T13:59:33;6.20;;;4.90;;
11334;SDS011;5722;42.620;23.374;2023-09-19T14:02:00;7.80;;;5.00;;
11334;SDS011;5722;42.620;23.374;2023-09-19T14:04:29;8.20;;;6.25;;
11334;SDS011;5722;42.620;23.374;2023-09-19T14:06:56;8.18;;;5.28;;
11334;SDS011;5722;42.620;23.374;2023-09-19T14:09:25;9.77;;;4.93;;
11334;SDS011;5722;42.620;23.374;2023-09-19T14:11:57;6.15;;;4.00;;
11334;SDS011;5722;42.620;23.374;2023-09-19T14:14:39;7.63;;;4.15;;
11334;SDS011;5722;42.620;23.374;2023-09-19T14:17:16;8.10;;;4.38;;
11334;SDS011;5722;42.620;23.374;2023-09-19T14:19:47;7.82;;;4.45;;
11334;SDS011;5722;42.620;23.374;2023-09-19T14:22:14;11.88;;;4.47;;
11334;SDS011;5722;42.620;23.374;2023-09-19T14:24:41;7.57;;;4.65;;
11334;SDS011;5722;42.620;23.374;2023-09-19T14:27:12;6.60;;;4.82;;
11334;SDS011;5722;42.620;23.374;2023-09-19T14:29:39;6.75;;;4.78;;
11334;SDS011;5722;42.620;23.374;2023-09-19T14:32:13;7.93;;;4.65;;
11334;SDS011;5722;42.620;23.374;2023-09-19T14:34:43;6.85;;;4.88;;
11334;SDS011;5722;42.620;23.374;2023-09-19T14:37:11;6.93;;;4.60;;
11334;SDS011;5722;42.620;23.374;2023-09-19T14:39:38;8.20;;;5.18;;
11334;SDS011;5722;42.620;23.374;2023-09-19T14:42:05;8.48;;;4.55;;
11334;SDS011;5722;42.620;23.374;2023-09-19T14:44:36;7.55;;;4.47;;
11334;SDS011;5722;42.620;23.374;2023-09-19T14:47:03;6.38;;;4.50;;
11334;SDS011;5722;42.620;23.374;2023-09-19T14:49:32;6.72;;;4.47;;
11334;SDS011;5722;42.620;23.374;2023-09-19T14:52:00;8.48;;;4.72;;
11334;SDS011;5722;42.620;23.374;2023-09-19T14:54:29;10.07;;;6.47;;
11334;SDS011;5722;42.620;23.374;2023-09-19T14:56:56;7.63;;;5.82;;
11334;SDS011;5722;42.620;23.374;2023-09-19T14:59:29;7.45;;;5.75;;
11334;SDS011;5722;42.620;23.374;2023-09-19T15:02:01;6.68;;;5.25;;
11334;SDS011;5722;42.620;23.374;2023-09-19T15:04:29;8.52;;;4.85;;
11334;SDS011;5722;42.620;23.374;2023-09-19T15:06:58;7.25;;;4.95;;
11334;SDS011;5722;42.620;23.374;2023-09-19T15:09:25;6.32;;;4.75;;
11334;SDS011;5722;42.620;23.374;2023-09-19T15:11:52;7.88;;;5.07;;
11334;SDS011;5722;42.620;23.374;2023-09-19T15:14:19;7.18;;;5.75;;
11334;SDS011;5722;42.620;23.374;2023-09-19T15:16:46;8.13;;;6.72;;
11334;SDS011;5722;42.620;23.374;2023-09-19T15:19:15;11.05;;;8.57;;
11334;SDS011;5722;42.620;23.374;2023-09-19T15:21:42;9.68;;;7.47;;
11334;SDS011;5722;42.620;23.374;2023-09-19T15:24:09;8.23;;;7.07;;
11334;SDS011;5722;42.620;23.374;2023-09-19T15:26:36;9.38;;;8.35;;
11334;SDS011;5722;42.620;23.374;2023-09-19T15:29:05;10.73;;;6.50;;